Holly Ridge, Mississippi
Current Conditions -  °F | °C
As of 11:53 AM on Sunday 25 Jan 2015 (Local Time) from KGLH Reporting Station
Overcast Overcast  
Wind Chill: 56°   Ceiling: 9000
Heat Index: 56°   Visibility: 10mi
Dew Point: 40°   Wind: 14mph
Humidity: 55%   Direction: 260°W
Pressure: 29.78"   Gusts: NA
Location:  33.45°N, 90.75°W
Report Text: KGLH 251753Z AUTO 26012KT 10SM OVC090 13/04 A2978 RMK AO2 SLP093 T01330044 10139 20039 58018
Loading
Personal Weather Stations






























Interactive Weather Map New forecast layout! Learn more

10-Day Weather Forecast

Advertisements
Track Severe Weather on mobile